createdAt,value
2022-12-26T00:02:14.370Z,16.30
2022-12-26T00:04:52.206Z,16.30
2022-12-26T00:07:23.490Z,16.40
2022-12-26T00:09:51.391Z,16.40
2022-12-26T00:12:19.292Z,16.40
2022-12-26T00:14:49.426Z,16.40
2022-12-26T00:17:18.728Z,16.40
2022-12-26T00:19:49.452Z,16.40
2022-12-26T00:22:19.591Z,16.40
2022-12-26T00:24:49.190Z,16.40
2022-12-26T00:27:19.513Z,16.40
2022-12-26T00:29:50.071Z,16.40
2022-12-26T00:32:21.552Z,16.40
2022-12-26T00:34:50.513Z,16.40
2022-12-26T00:37:19.115Z,16.40
2022-12-26T00:39:47.229Z,16.40
2022-12-26T00:42:15.050Z,16.40
2022-12-26T00:44:44.071Z,16.40
2022-12-26T00:47:14.569Z,16.40
2022-12-26T00:50:12.925Z,16.50
2022-12-26T00:52:35.033Z,16.40
2022-12-26T00:55:02.917Z,16.50
2022-12-26T00:57:30.753Z,16.50
2022-12-26T00:59:58.596Z,16.50
2022-12-26T01:02:41.914Z,16.50
2022-12-26T01:05:13.864Z,16.40
2022-12-26T01:08:19.500Z,16.50
2022-12-26T01:10:32.922Z,16.50
2022-12-26T01:13:02.870Z,16.50
2022-12-26T01:15:30.710Z,16.50
2022-12-26T01:18:01.228Z,16.50
2022-12-26T01:20:30.925Z,16.50
2022-12-26T01:22:59.387Z,16.50
2022-12-26T01:25:32.685Z,16.50
2022-12-26T01:28:00.533Z,16.50
2022-12-26T01:30:29.481Z,16.50
2022-12-26T01:32:58.063Z,16.50
2022-12-26T01:35:25.982Z,16.50
2022-12-26T01:37:56.321Z,16.50
2022-12-26T01:40:25.695Z,16.50
2022-12-26T01:42:54.319Z,16.60
2022-12-26T01:45:32.281Z,16.50
2022-12-26T01:48:13.048Z,16.50
2022-12-26T01:50:50.329Z,16.50
2022-12-26T01:53:27.964Z,16.50
2022-12-26T01:56:03.228Z,16.50
2022-12-26T01:58:46.320Z,16.50
2022-12-26T02:01:16.661Z,16.60
2022-12-26T02:04:05.236Z,16.60
2022-12-26T02:06:37.855Z,16.60
2022-12-26T02:09:09.218Z,16.60
2022-12-26T02:11:49.717Z,16.50
2022-12-26T02:15:50.360Z,16.50
2022-12-26T02:18:20.634Z,16.50
2022-12-26T02:21:10.871Z,16.50
2022-12-26T02:24:05.688Z,16.50
2022-12-26T02:27:20.131Z,16.50
2022-12-26T02:30:54.974Z,16.50
2022-12-26T02:33:44.204Z,16.50
2022-12-26T02:36:51.847Z,16.50
2022-12-26T02:39:43.835Z,16.50
2022-12-26T02:42:33.556Z,16.50
2022-12-26T02:45:34.195Z,16.50
2022-12-26T02:48:17.052Z,16.50
2022-12-26T02:51:20.533Z,16.50
2022-12-26T02:54:24.874Z,16.50
2022-12-26T02:57:15.820Z,16.60
2022-12-26T03:00:11.650Z,16.50
2022-12-26T03:03:05.875Z,16.50
2022-12-26T03:06:01.139Z,16.50
2022-12-26T03:08:53.049Z,16.60
2022-12-26T03:11:40.567Z,16.60
2022-12-26T03:14:19.932Z,16.60
2022-12-26T03:17:14.843Z,16.60
2022-12-26T03:20:00.236Z,16.60
2022-12-26T03:22:41.828Z,16.60
2022-12-26T03:25:44.464Z,16.60
2022-12-26T03:28:13.926Z,16.70
2022-12-26T03:30:52.101Z,16.70
2022-12-26T03:33:44.445Z,16.60
2022-12-26T03:36:18.008Z,16.60
2022-12-26T03:39:07.828Z,16.60
2022-12-26T03:45:42.481Z,16.60
2022-12-26T03:48:42.851Z,16.60
2022-12-26T03:51:42.364Z,16.60
2022-12-26T03:54:43.717Z,16.60
2022-12-26T03:57:42.550Z,16.60
2022-12-26T04:00:34.579Z,16.70
2022-12-26T04:03:30.689Z,16.60
2022-12-26T04:06:21.180Z,16.70
2022-12-26T04:09:16.186Z,16.60
2022-12-26T04:12:12.178Z,16.70
2022-12-26T04:15:11.899Z,16.60
2022-12-26T04:18:07.119Z,16.60
2022-12-26T04:20:48.310Z,16.60
2022-12-26T04:23:46.262Z,16.60
2022-12-26T04:26:41.106Z,16.70
2022-12-26T04:29:29.430Z,16.70
2022-12-26T04:32:26.850Z,16.70
2022-12-26T04:35:26.124Z,16.70
2022-12-26T04:38:17.568Z,16.70
2022-12-26T04:44:03.936Z,16.70
2022-12-26T04:46:36.278Z,16.70
2022-12-26T04:49:31.220Z,16.70
2022-12-26T04:52:04.923Z,16.70
2022-12-26T04:54:34.992Z,16.70
2022-12-26T04:57:02.939Z,16.70
2022-12-26T04:59:30.776Z,16.80
2022-12-26T05:02:32.750Z,16.70
2022-12-26T05:05:20.353Z,16.80
2022-12-26T05:08:06.868Z,16.80
2022-12-26T05:10:35.810Z,16.80
2022-12-26T05:13:06.309Z,16.80
2022-12-26T05:15:57.867Z,16.80
2022-12-26T05:18:47.689Z,16.80
2022-12-26T05:21:37.699Z,16.80
2022-12-26T05:24:27.572Z,16.80
2022-12-26T05:27:13.102Z,16.80
2022-12-26T05:29:44.117Z,16.80
2022-12-26T05:32:14.351Z,16.80
2022-12-26T05:34:45.603Z,16.80
2022-12-26T05:37:14.677Z,16.80
2022-12-26T05:39:44.210Z,16.80
2022-12-26T05:42:13.613Z,16.90
2022-12-26T05:44:47.310Z,16.80
2022-12-26T05:47:15.166Z,16.90
2022-12-26T05:49:48.044Z,16.90
2022-12-26T05:52:18.700Z,16.90
2022-12-26T05:54:48.308Z,16.90
2022-12-26T05:57:16.139Z,16.90
2022-12-26T05:59:51.112Z,16.90
2022-12-26T06:02:20.452Z,16.90
2022-12-26T06:04:52.144Z,16.90
2022-12-26T06:07:20.022Z,17.00
2022-12-26T06:09:49.207Z,16.90
2022-12-26T06:12:17.030Z,17.00
2022-12-26T06:14:48.249Z,16.90
2022-12-26T06:17:18.601Z,17.00
2022-12-26T06:19:48.749Z,17.00
2022-12-26T06:22:21.539Z,16.90
2022-12-26T06:24:50.265Z,17.00
2022-12-26T06:27:23.332Z,17.00
2022-12-26T06:29:53.539Z,17.00
2022-12-26T06:32:24.110Z,17.00
2022-12-26T06:34:54.275Z,17.00
2022-12-26T06:37:26.053Z,17.00
2022-12-26T06:39:55.288Z,17.00
2022-12-26T06:42:25.400Z,17.00
2022-12-26T06:44:58.542Z,17.00
2022-12-26T06:47:26.370Z,17.00
2022-12-26T06:49:54.306Z,17.00
2022-12-26T06:52:23.464Z,17.00
2022-12-26T06:54:51.574Z,17.00
2022-12-26T06:57:20.656Z,17.00
2022-12-26T06:59:49.666Z,17.00
2022-12-26T07:02:17.601Z,17.00
2022-12-26T07:04:45.461Z,17.00
2022-12-26T07:07:14.606Z,17.00
2022-12-26T07:09:50.213Z,17.00
2022-12-26T07:12:24.083Z,17.00
2022-12-26T07:14:59.703Z,17.00
2022-12-26T07:17:29.302Z,17.00
2022-12-26T07:19:59.505Z,17.00
2022-12-26T07:22:29.993Z,17.00
2022-12-26T07:25:04.024Z,17.00
2022-12-26T07:27:31.889Z,17.00
2022-12-26T07:29:59.776Z,17.00
2022-12-26T07:32:30.133Z,17.00
2022-12-26T07:34:58.027Z,17.00
2022-12-26T07:37:25.909Z,17.00
2022-12-26T07:39:58.731Z,17.00
2022-12-26T07:42:32.608Z,17.00
2022-12-26T07:45:02.888Z,17.00
2022-12-26T07:47:30.800Z,17.00
2022-12-26T07:49:58.687Z,17.00
2022-12-26T07:52:28.887Z,17.00
2022-12-26T07:54:59.221Z,17.00
2022-12-26T08:00:20.113Z,16.90
2022-12-26T08:02:53.134Z,16.90
2022-12-26T08:05:21.417Z,17.00
2022-12-26T08:07:51.340Z,17.00
2022-12-26T08:10:20.741Z,17.00
2022-12-26T08:12:49.903Z,17.00
2022-12-26T08:15:19.470Z,17.00
2022-12-26T08:17:47.327Z,17.00
2022-12-26T08:20:16.479Z,17.00
2022-12-26T08:22:46.246Z,17.00
2022-12-26T08:25:24.141Z,17.00
2022-12-26T08:27:52.481Z,17.00
2022-12-26T08:30:25.271Z,17.00
2022-12-26T08:32:55.480Z,17.00
2022-12-26T08:35:26.671Z,17.00
2022-12-26T08:37:55.556Z,17.00
2022-12-26T08:40:42.075Z,17.00
2022-12-26T08:43:31.061Z,17.00
2022-12-26T08:46:03.698Z,17.00
2022-12-26T08:48:33.183Z,17.00
2022-12-26T08:51:04.526Z,17.00
2022-12-26T08:53:36.835Z,17.00
2022-12-26T08:56:11.481Z,17.00
2022-12-26T08:58:39.604Z,17.00
2022-12-26T09:01:11.450Z,17.00
2022-12-26T09:03:41.700Z,17.10
2022-12-26T09:06:16.856Z,17.00
2022-12-26T09:08:46.344Z,17.10
2022-12-26T09:11:20.442Z,17.00
2022-12-26T09:13:50.999Z,17.10
2022-12-26T09:16:24.794Z,17.10
2022-12-26T09:18:58.063Z,17.10
2022-12-26T09:21:26.513Z,17.10
2022-12-26T09:23:58.879Z,17.10
2022-12-26T09:26:27.746Z,17.10
2022-12-26T09:28:56.802Z,17.10
2022-12-26T09:31:33.556Z,17.10
2022-12-26T09:34:07.693Z,17.10
2022-12-26T09:36:40.981Z,17.10
2022-12-26T09:39:09.897Z,17.20
2022-12-26T09:41:54.894Z,17.10
2022-12-26T09:44:39.393Z,17.10
2022-12-26T09:47:47.412Z,17.10
2022-12-26T09:50:28.106Z,17.10
2022-12-26T09:53:01.032Z,17.10
2022-12-26T09:55:38.812Z,17.10
2022-12-26T09:58:28.238Z,17.10
2022-12-26T10:01:04.076Z,17.10
2022-12-26T10:03:40.883Z,17.20
2022-12-26T10:06:22.121Z,17.10
2022-12-26T10:09:22.157Z,17.10
2022-12-26T10:12:43.631Z,17.10
2022-12-26T10:15:55.647Z,17.10
2022-12-26T10:18:46.359Z,17.10
2022-12-26T10:21:44.856Z,17.10
2022-12-26T10:24:20.825Z,17.10
2022-12-26T10:26:54.041Z,17.20
2022-12-26T10:29:30.610Z,17.20
2022-12-26T10:32:07.058Z,17.20
2022-12-26T10:37:30.870Z,17.20
2022-12-26T10:40:16.688Z,17.20
2022-12-26T10:42:52.568Z,17.20
2022-12-26T10:45:33.784Z,17.20
2022-12-26T10:48:03.395Z,17.30
2022-12-26T10:50:35.773Z,17.30
2022-12-26T10:53:10.871Z,17.30
2022-12-26T10:55:39.748Z,17.30
2022-12-26T10:58:25.777Z,17.30
2022-12-26T11:00:55.530Z,17.20
2022-12-26T11:03:25.713Z,17.30
2022-12-26T11:06:07.506Z,17.30
2022-12-26T11:08:47.243Z,17.30
2022-12-26T11:11:46.432Z,17.30
2022-12-26T11:14:38.759Z,17.30
2022-12-26T11:17:12.189Z,17.30
2022-12-26T11:19:57.787Z,17.30
2022-12-26T11:22:29.470Z,17.30
2022-12-26T11:25:19.420Z,17.30
2022-12-26T11:27:51.494Z,17.30
2022-12-26T11:30:37.833Z,17.30
2022-12-26T11:33:46.203Z,17.30
2022-12-26T11:36:22.903Z,17.30
2022-12-26T11:39:03.086Z,17.30
2022-12-26T11:41:46.386Z,17.30
2022-12-26T11:44:41.010Z,17.30
2022-12-26T11:47:27.365Z,17.30
2022-12-26T11:50:03.203Z,17.30
2022-12-26T11:52:39.124Z,17.40
2022-12-26T11:55:34.379Z,17.30
2022-12-26T11:58:19.251Z,17.30
2022-12-26T12:01:21.311Z,17.30
2022-12-26T12:03:52.846Z,17.40
2022-12-26T12:06:49.368Z,17.30
2022-12-26T12:09:31.132Z,17.30
2022-12-26T12:12:12.911Z,17.40
2022-12-26T12:15:04.401Z,17.30
2022-12-26T12:17:49.530Z,17.30
2022-12-26T12:20:32.575Z,17.40
2022-12-26T12:23:30.764Z,17.40
2022-12-26T12:26:11.665Z,17.40
2022-12-26T12:29:21.499Z,17.30
2022-12-26T12:32:09.324Z,17.30
2022-12-26T12:35:08.573Z,17.30
2022-12-26T12:37:58.139Z,17.30
2022-12-26T12:40:40.203Z,17.30
2022-12-26T12:43:28.403Z,17.20
2022-12-26T12:46:11.751Z,17.20
2022-12-26T12:48:59.458Z,17.20
2022-12-26T12:51:40.840Z,17.20
2022-12-26T12:54:55.570Z,17.20
2022-12-26T12:57:52.188Z,17.20
2022-12-26T13:00:23.579Z,17.20
2022-12-26T13:03:13.741Z,17.20
2022-12-26T13:05:58.844Z,17.20
2022-12-26T13:08:33.269Z,17.20
2022-12-26T13:11:18.084Z,17.20
2022-12-26T13:13:54.071Z,17.20
2022-12-26T13:16:28.398Z,17.20
2022-12-26T13:19:06.983Z,17.20
2022-12-26T13:22:02.838Z,17.10
2022-12-26T13:24:35.846Z,17.20
2022-12-26T13:27:14.724Z,17.20
2022-12-26T13:29:49.668Z,17.20
2022-12-26T13:32:27.113Z,17.10
2022-12-26T13:35:00.958Z,17.20
2022-12-26T13:37:59.339Z,17.10
2022-12-26T13:40:32.075Z,17.10
2022-12-26T13:43:28.025Z,17.10
2022-12-26T13:45:58.362Z,17.10
2022-12-26T13:48:59.790Z,17.00
2022-12-26T13:51:55.672Z,17.00
2022-12-26T13:54:28.336Z,17.00
2022-12-26T13:57:39.430Z,17.00
2022-12-26T14:00:24.243Z,17.00
2022-12-26T14:03:44.863Z,17.00
2022-12-26T14:06:53.595Z,17.00
2022-12-26T14:09:46.764Z,16.90
2022-12-26T14:13:02.315Z,16.90
2022-12-26T14:15:57.277Z,16.90
2022-12-26T14:18:42.134Z,16.90
2022-12-26T14:21:45.389Z,16.90
2022-12-26T14:24:32.469Z,16.90
2022-12-26T14:27:32.887Z,16.90
2022-12-26T14:30:23.018Z,16.90
2022-12-26T14:33:29.719Z,16.90
2022-12-26T14:36:19.501Z,16.90
2022-12-26T14:38:59.076Z,16.90
2022-12-26T14:41:49.806Z,16.90
2022-12-26T14:44:53.099Z,16.80
2022-12-26T14:47:40.969Z,16.70
2022-12-26T14:50:47.610Z,16.80
2022-12-26T14:53:42.635Z,16.80
2022-12-26T14:59:36.023Z,16.80
2022-12-26T15:02:58.153Z,16.70
2022-12-26T15:05:54.006Z,16.80
2022-12-26T15:08:54.342Z,16.70
2022-12-26T15:13:03.124Z,16.70
2022-12-26T15:16:29.436Z,16.70
2022-12-26T15:19:58.102Z,16.70
2022-12-26T15:23:09.208Z,16.60
2022-12-26T15:26:04.155Z,16.60
2022-12-26T15:29:20.062Z,16.60
2022-12-26T15:32:06.736Z,16.60
2022-12-26T15:34:57.878Z,16.60
2022-12-26T15:38:18.299Z,16.60
2022-12-26T15:41:05.493Z,16.60
2022-12-26T15:44:24.844Z,16.60
2022-12-26T15:47:28.176Z,16.60
2022-12-26T15:50:23.437Z,16.60
2022-12-26T15:53:10.986Z,16.60
2022-12-26T15:56:10.044Z,16.60
2022-12-26T15:59:26.864Z,16.60
2022-12-26T16:02:00.614Z,16.60
2022-12-26T16:04:36.063Z,16.60
2022-12-26T16:07:36.426Z,16.50
2022-12-26T16:10:30.975Z,16.50
2022-12-26T16:13:04.636Z,16.50
2022-12-26T16:15:38.052Z,16.60
2022-12-26T16:18:18.804Z,16.50
2022-12-26T16:21:10.724Z,16.50
2022-12-26T16:23:42.867Z,16.50
2022-12-26T16:26:24.415Z,16.50
2022-12-26T16:28:54.071Z,16.60
2022-12-26T16:31:27.150Z,16.50
2022-12-26T16:33:59.492Z,16.60
2022-12-26T16:36:36.525Z,16.60
2022-12-26T16:39:10.555Z,16.60
2022-12-26T16:42:01.915Z,16.50
2022-12-26T16:44:40.397Z,16.50
2022-12-26T16:47:22.041Z,16.50
2022-12-26T16:49:57.647Z,16.60
2022-12-26T16:52:43.895Z,16.50
2022-12-26T16:55:36.551Z,16.50
2022-12-26T16:58:21.999Z,16.50
2022-12-26T17:01:10.723Z,16.50
2022-12-26T17:03:59.889Z,16.50
2022-12-26T17:06:35.226Z,16.50
2022-12-26T17:09:09.484Z,16.50
2022-12-26T17:11:46.023Z,16.50
2022-12-26T17:14:22.917Z,16.50
2022-12-26T17:16:59.152Z,16.50
2022-12-26T17:19:32.488Z,16.50
2022-12-26T17:22:31.373Z,16.40
2022-12-26T17:25:27.760Z,16.40
2022-12-26T17:28:31.137Z,16.40
2022-12-26T17:31:17.430Z,16.40
2022-12-26T17:33:48.247Z,16.50
2022-12-26T17:39:27.587Z,16.40
2022-12-26T17:42:00.830Z,16.40
2022-12-26T17:44:43.474Z,16.40
2022-12-26T17:47:21.027Z,16.40
2022-12-26T17:49:54.515Z,16.40
2022-12-26T17:52:29.002Z,16.40
2022-12-26T17:54:59.009Z,16.50
2022-12-26T17:57:30.245Z,16.50
2022-12-26T17:59:59.384Z,16.50
2022-12-26T18:02:32.210Z,16.50
2022-12-26T18:05:00.633Z,16.50
2022-12-26T18:07:32.455Z,16.50
2022-12-26T18:10:01.188Z,16.50
2022-12-26T18:12:32.070Z,16.50
2022-12-26T18:15:02.754Z,16.50
2022-12-26T18:17:34.476Z,16.50
2022-12-26T18:20:03.233Z,16.50
2022-12-26T18:22:35.894Z,16.50
2022-12-26T18:25:06.216Z,16.50
2022-12-26T18:27:35.199Z,16.50
2022-12-26T18:30:03.297Z,16.50
2022-12-26T18:32:36.648Z,16.50
2022-12-26T18:35:06.022Z,16.50
2022-12-26T18:37:37.153Z,16.50
2022-12-26T18:40:24.889Z,16.50
2022-12-26T18:42:53.660Z,16.50
2022-12-26T18:45:25.782Z,16.50
2022-12-26T18:47:54.951Z,16.50
2022-12-26T18:50:32.385Z,16.50
2022-12-26T18:53:04.063Z,16.50
2022-12-26T18:55:32.041Z,16.50
2022-12-26T18:58:02.155Z,16.50
2022-12-26T19:00:30.296Z,16.50
2022-12-26T19:02:58.824Z,16.50
2022-12-26T19:05:31.625Z,16.50
2022-12-26T19:08:01.467Z,16.50
2022-12-26T19:10:34.926Z,16.50
2022-12-26T19:13:06.992Z,16.50
2022-12-26T19:15:36.669Z,16.50
2022-12-26T19:18:08.201Z,16.50
2022-12-26T19:20:43.959Z,16.50
2022-12-26T19:23:14.069Z,16.50
2022-12-26T19:25:43.313Z,16.50
2022-12-26T19:28:12.680Z,16.50
2022-12-26T19:30:42.727Z,16.50
2022-12-26T19:33:10.679Z,16.50
2022-12-26T19:35:38.981Z,16.50
2022-12-26T19:38:08.342Z,16.50
2022-12-26T19:40:36.276Z,16.50
2022-12-26T19:43:06.266Z,16.40
2022-12-26T19:45:34.347Z,16.50
2022-12-26T19:48:03.657Z,16.40
2022-12-26T19:50:33.821Z,16.40
2022-12-26T19:53:02.892Z,16.40
2022-12-26T19:55:30.853Z,16.40
2022-12-26T19:57:59.658Z,16.40
2022-12-26T20:00:29.280Z,16.40
2022-12-26T20:02:59.015Z,16.30
2022-12-26T20:05:29.359Z,16.30
2022-12-26T20:07:58.465Z,16.30
2022-12-26T20:10:31.318Z,16.30
2022-12-26T20:12:59.682Z,16.30
2022-12-26T20:15:33.724Z,16.30
2022-12-26T20:18:02.902Z,16.30
2022-12-26T20:20:33.044Z,16.30
2022-12-26T20:23:01.009Z,16.30
2022-12-26T20:25:31.808Z,16.30
2022-12-26T20:28:01.941Z,16.30
2022-12-26T20:30:31.280Z,16.30
2022-12-26T20:32:59.236Z,16.30
2022-12-26T20:35:29.075Z,16.30
2022-12-26T20:37:57.039Z,16.30
2022-12-26T20:40:29.944Z,16.20
2022-12-26T20:42:59.759Z,16.20
2022-12-26T20:45:29.286Z,16.20
2022-12-26T20:48:03.164Z,16.20
2022-12-26T20:50:33.686Z,16.20
2022-12-26T20:53:04.044Z,16.20
2022-12-26T20:55:34.616Z,16.20
2022-12-26T20:58:04.187Z,16.20
2022-12-26T21:00:34.126Z,16.10
2022-12-26T21:03:04.903Z,16.10
2022-12-26T21:05:32.838Z,16.10
2022-12-26T21:08:00.772Z,16.10
2022-12-26T21:10:29.914Z,16.10
2022-12-26T21:13:00.233Z,16.10
2022-12-26T21:15:28.458Z,16.10
2022-12-26T21:17:56.346Z,16.00
2022-12-26T21:20:27.354Z,16.00
2022-12-26T21:22:56.238Z,16.00
2022-12-26T21:25:25.485Z,16.00
2022-12-26T21:27:58.880Z,15.90
2022-12-26T21:30:27.498Z,15.90
2022-12-26T21:32:55.419Z,15.90
2022-12-26T21:35:24.942Z,15.80
2022-12-26T21:37:54.391Z,15.80
2022-12-26T21:40:27.862Z,15.80
2022-12-26T21:43:03.373Z,15.80
2022-12-26T21:45:31.269Z,15.80
2022-12-26T21:47:59.150Z,15.80
2022-12-26T21:50:29.413Z,15.70
2022-12-26T21:52:58.911Z,15.70
2022-12-26T21:55:31.174Z,15.70
2022-12-26T21:58:04.546Z,15.60
2022-12-26T22:00:35.304Z,15.60
2022-12-26T22:03:22.030Z,15.60
2022-12-26T22:05:50.659Z,15.50
2022-12-26T22:08:20.964Z,15.50
2022-12-26T22:11:08.575Z,15.50
2022-12-26T22:13:45.528Z,15.40
2022-12-26T22:16:16.206Z,15.40
2022-12-26T22:18:48.245Z,15.40
2022-12-26T22:21:20.411Z,15.30
2022-12-26T22:24:04.945Z,15.30
2022-12-26T22:26:35.479Z,15.30
2022-12-26T22:29:06.145Z,15.30
2022-12-26T22:31:36.944Z,15.30
2022-12-26T22:34:10.606Z,15.20
2022-12-26T22:36:41.033Z,15.20
2022-12-26T22:39:16.959Z,15.20
2022-12-26T22:41:46.820Z,15.20
2022-12-26T22:44:15.666Z,15.20
2022-12-26T22:46:45.332Z,15.20
2022-12-26T22:49:13.264Z,15.20
2022-12-26T22:51:42.779Z,15.20
2022-12-26T22:54:11.986Z,15.10
2022-12-26T22:56:40.122Z,15.10
2022-12-26T22:59:33.851Z,15.10
2022-12-26T23:02:05.093Z,15.10
2022-12-26T23:04:34.995Z,15.10
2022-12-26T23:07:04.127Z,15.10
2022-12-26T23:09:36.281Z,15.00
2022-12-26T23:12:25.385Z,15.00
2022-12-26T23:14:56.681Z,15.00
2022-12-26T23:17:48.725Z,14.90
2022-12-26T23:20:46.235Z,14.90
2022-12-26T23:23:14.742Z,14.90
2022-12-26T23:25:44.123Z,14.90
2022-12-26T23:28:30.038Z,14.90
2022-12-26T23:30:58.996Z,14.90
2022-12-26T23:33:27.010Z,14.90
2022-12-26T23:35:56.899Z,14.90
2022-12-26T23:38:24.940Z,14.90
2022-12-26T23:41:00.552Z,14.80
2022-12-26T23:43:28.431Z,14.80
2022-12-26T23:46:10.622Z,14.80
2022-12-26T23:48:39.822Z,14.80
2022-12-26T23:51:09.802Z,14.80
2022-12-26T23:53:38.096Z,14.80
2022-12-26T23:56:11.087Z,14.70
2022-12-26T23:58:44.221Z,14.80
